Time;durP1;ratioP1;P1;durP2;ratioP2;P2;SDS_P1;SDS_P2;PMS_P1;PMS_P2;Temp;Humidity;BMP_temperature;BMP_pressure;BME280_temperature;BME280_humidity;BME280_pressure;Samples;Min_cycle;Max_cycle;Signal;HPM_P1;HPM_P2
2023/01/10 00:02:33;;;;;;;1.50;1.20;;;;;;;4.72;100.00;152575.81;4993555;28;20948;-78
2023/01/10 00:05:19;;;;;;;2.97;1.27;;;;;;;4.72;100.00;152575.81;4993893;28;20444;-78
2023/01/10 00:08:05;;;;;;;1.47;0.77;;;;;;;4.72;100.00;152575.81;4999718;28;20448;-78
2023/01/10 00:10:50;;;;;;;1.53;1.00;;;;;;;4.72;100.00;152575.81;4993865;28;20427;-78
2023/01/10 00:13:36;;;;;;;1.60;1.33;;;;;;;4.70;100.00;152569.38;4988866;28;20461;-78
2023/01/10 00:16:21;;;;;;;1.43;1.10;;;;;;;4.70;100.00;152570.66;4991290;28;20445;-78
2023/01/10 00:19:07;;;;;;;1.40;1.07;;;;;;;4.68;100.00;152565.53;5005061;28;20449;-77
2023/01/10 00:21:53;;;;;;;1.40;0.80;;;;;;;4.68;100.00;152565.53;4988718;28;20488;-78
2023/01/10 00:24:41;;;;;;;1.80;1.30;;;;;;;4.64;100.00;152555.19;5009710;28;20490;-78
2023/01/10 00:27:26;;;;;;;1.70;1.03;;;;;;;4.67;100.00;152561.63;4997896;28;20940;-78
2023/01/10 00:30:13;;;;;;;1.23;0.90;;;;;;;4.64;100.00;152553.91;4998675;28;20449;-78
2023/01/10 00:32:58;;;;;;;1.10;0.80;;;;;;;4.64;100.00;152555.19;5001523;28;20459;-78
2023/01/10 00:35:44;;;;;;;1.40;0.97;;;;;;;4.70;100.00;152570.66;4994595;28;20531;-77
2023/01/10 00:38:30;;;;;;;1.63;1.20;;;;;;;4.66;100.00;152559.09;4995106;28;20977;-78
2023/01/10 00:44:14;;;;;;;2.53;1.10;;;;;;;4.63;100.00;152551.34;4995097;28;20476;-78
2023/01/10 00:47:01;;;;;;;1.20;1.03;;;;;;;4.59;100.00;152541.03;4999628;28;20436;-77
2023/01/10 00:49:47;;;;;;;2.03;1.00;;;;;;;4.66;100.00;152559.09;4984218;28;20798;-78
2023/01/10 00:52:32;;;;;;;1.73;1.13;;;;;;;4.55;100.00;152532.03;4993524;28;20460;-77
2023/01/10 00:55:17;;;;;;;1.57;1.27;;;;;;;4.52;100.00;152523.00;4993585;28;20468;-78
2023/01/10 00:58:02;;;;;;;1.73;1.30;;;;;;;4.57;100.00;152535.88;4995685;28;20460;-78
2023/01/10 01:00:49;;;;;;;2.53;1.63;;;;;;;4.52;100.00;152524.28;5007457;28;20442;-78
2023/01/10 01:03:35;;;;;;;2.43;1.93;;;;;;;4.53;100.00;152525.53;4994017;28;20579;-77
2023/01/10 01:06:21;;;;;;;3.10;2.10;;;;;;;4.49;100.00;152516.56;4995554;28;20437;-78
2023/01/10 01:09:06;;;;;;;5.00;2.40;;;;;;;4.51;100.00;152521.69;4991673;28;20609;-78
2023/01/10 01:11:52;;;;;;;4.40;2.90;;;;;;;4.51;100.00;152520.41;4975710;28;20442;-77
2023/01/10 01:14:37;;;;;;;6.27;1.90;;;;;;;4.49;100.00;152516.56;4998953;28;20559;-78
2023/01/10 01:17:23;;;;;;;2.40;1.43;;;;;;;4.47;100.00;152511.41;4996291;28;20456;-78
2023/01/10 01:20:11;;;;;;;1.83;1.37;;;;;;;4.49;100.00;152516.56;4998918;28;20475;-78
2023/01/10 01:22:56;;;;;;;1.37;0.93;;;;;;;4.49;100.00;152516.56;4997380;28;20440;-78
2023/01/10 01:25:42;;;;;;;2.33;1.50;;;;;;;4.52;100.00;152524.28;4991013;28;20548;-78
2023/01/10 01:28:28;;;;;;;2.00;1.33;;;;;;;4.52;100.00;152524.28;5004359;28;20472;-78
2023/01/10 01:31:13;;;;;;;2.03;1.60;;;;;;;4.50;100.00;152519.09;4993927;28;20460;-78
2023/01/10 01:33:58;;;;;;;2.00;1.80;;;;;;;4.51;100.00;152521.69;4984762;28;20464;-78
2023/01/10 01:36:47;;;;;;;1.73;1.27;;;;;;;4.53;100.00;152526.84;4998776;28;20441;-77
2023/01/10 01:39:32;;;;;;;2.20;1.73;;;;;;;4.53;100.00;152526.84;4993150;28;20445;-78
2023/01/10 01:42:22;;;;;;;1.70;1.00;;;;;;;4.58;100.00;152539.72;4994822;28;20445;-79
2023/01/10 01:45:32;;;;;;;1.50;1.13;;;;;;;4.58;100.00;152539.72;4990512;28;20506;-78
2023/01/10 01:48:42;;;;;;;1.07;0.77;;;;;;;4.56;100.00;152533.28;4997473;28;20452;-78
2023/01/10 01:51:29;;;;;;;0.87;0.63;;;;;;;4.62;100.00;152550.06;4990431;28;20457;-78
2023/01/10 01:54:17;;;;;;;2.17;1.00;;;;;;;4.62;100.00;152548.75;4997899;28;20841;-78
2023/01/10 01:57:05;;;;;;;1.00;0.63;;;;;;;4.61;100.00;152547.47;4975785;28;20519;-78
2023/01/10 01:59:52;;;;;;;1.30;0.90;;;;;;;4.60;100.00;152544.91;4987244;28;20577;-78
2023/01/10 02:02:40;;;;;;;1.20;0.90;;;;;;;4.59;100.00;152541.03;4992379;28;20459;-78
2023/01/10 02:05:26;;;;;;;1.10;0.60;;;;;;;4.54;100.00;152529.44;4996572;28;20425;-78
2023/01/10 02:08:12;;;;;;;1.30;0.90;;;;;;;4.58;100.00;152538.47;5005689;28;20944;-77
2023/01/10 02:11:07;;;;;;;1.33;0.80;;;;;;;4.57;100.00;152537.19;4991251;28;20948;-78
2023/01/10 02:13:53;;;;;;;0.90;0.70;;;;;;;4.56;100.00;152533.28;4984836;28;20853;-78
2023/01/10 02:16:38;;;;;;;1.50;0.80;;;;;;;4.56;100.00;152534.59;4996307;28;20562;-78
2023/01/10 02:19:29;;;;;;;1.27;0.90;;;;;;;4.55;100.00;152532.03;4994890;28;20457;-77
2023/01/10 02:22:46;;;;;;;1.13;0.80;;;;;;;4.53;100.00;152525.53;4992296;28;20421;-77
2023/01/10 02:25:51;;;;;;;1.40;0.77;;;;;;;4.53;100.00;152526.84;4989981;28;20489;-77
2023/01/10 02:29:15;;;;;;;1.70;0.97;;;;;;;4.50;100.00;152517.84;4991740;28;21218;-78
2023/01/10 02:32:19;;;;;;;1.50;1.10;;;;;;;4.47;100.00;152510.13;4991862;28;20413;-78
2023/01/10 02:35:18;;;;;;;1.37;1.20;;;;;;;4.43;100.00;152499.78;4984167;28;21142;-78
2023/01/10 02:38:09;;;;;;;1.40;0.90;;;;;;;4.42;100.00;152497.25;4988726;28;20489;-77
2023/01/10 02:41:01;;;;;;;1.60;1.10;;;;;;;4.40;100.00;152493.34;4991207;28;20958;-78
2023/01/10 02:43:51;;;;;;;1.73;1.10;;;;;;;4.43;100.00;152499.78;4992094;28;20473;-78
2023/01/10 02:46:37;;;;;;;1.33;1.00;;;;;;;4.41;100.00;152494.66;4987978;28;20780;-77
2023/01/10 02:49:24;;;;;;;1.60;1.10;;;;;;;4.39;100.00;152490.81;4989704;28;20468;-78
2023/01/10 02:52:10;;;;;;;1.30;1.07;;;;;;;4.40;100.00;152493.34;5003200;28;20441;-77
2023/01/10 02:55:00;;;;;;;2.20;1.23;;;;;;;4.39;100.00;152490.81;4989021;28;20465;-77
2023/01/10 02:57:48;;;;;;;1.40;1.03;;;;;;;4.38;100.00;152488.22;4999612;28;20456;-78
2023/01/10 03:00:43;;;;;;;2.53;1.40;;;;;;;4.32;100.00;152472.75;4984412;28;20445;-77
2023/01/10 03:03:34;;;;;;;2.60;1.37;;;;;;;4.28;100.00;152463.75;4985941;28;20453;-77
2023/01/10 03:06:27;;;;;;;1.70;1.10;;;;;;;4.25;100.00;152454.72;4995395;28;20444;-77
2023/01/10 03:09:17;;;;;;;1.50;1.07;;;;;;;4.30;100.00;152467.59;4992415;28;20527;-78
2023/01/10 03:12:06;;;;;;;1.50;1.20;;;;;;;4.30;100.00;152467.59;4992807;28;20405;-77
2023/01/10 03:14:52;;;;;;;2.47;1.40;;;;;;;4.30;100.00;152467.59;5007061;28;20477;-77
2023/01/10 03:17:38;;;;;;;1.43;1.17;;;;;;;4.28;100.00;152463.75;4992943;28;20500;-77
2023/01/10 03:20:24;;;;;;;3.03;1.60;;;;;;;4.29;100.00;152465.00;4993475;28;20443;-78
2023/01/10 03:23:12;;;;;;;2.20;1.60;;;;;;;4.29;100.00;152465.00;4999439;28;20695;-77
2023/01/10 03:25:57;;;;;;;3.00;1.57;;;;;;;4.27;100.00;152461.16;5002895;28;20409;-78
2023/01/10 03:28:47;;;;;;;1.67;1.53;;;;;;;4.25;100.00;152454.72;4992508;28;20488;-77
2023/01/10 03:31:36;;;;;;;4.27;2.30;;;;;;;4.27;100.00;152461.16;4990179;28;20799;-77
2023/01/10 03:34:22;;;;;;;1.93;1.63;;;;;;;4.29;100.00;152466.31;4994934;28;20803;-77
2023/01/10 03:37:12;;;;;;;4.10;2.10;;;;;;;4.31;100.00;152471.44;4990834;28;20503;-78
2023/01/10 03:40:06;;;;;;;2.10;1.80;;;;;;;4.31;100.00;152470.19;4991757;28;20580;-78
2023/01/10 03:46:20;;;;;;;4.53;2.07;;;;;;;4.28;100.00;152462.47;4902094;29;20452;-78
2023/01/10 03:49:06;;;;;;;5.07;2.40;;;;;;;4.34;100.00;152477.94;4912034;29;20553;-77
2023/01/10 03:51:52;;;;;;;3.20;2.13;;;;;;;4.30;100.00;152468.91;4993243;28;20955;-78
2023/01/10 03:54:38;;;;;;;2.63;1.90;;;;;;;4.29;100.00;152465.00;4972507;28;20445;-77
2023/01/10 03:57:25;;;;;;;2.30;2.07;;;;;;;4.28;100.00;152462.47;4991127;28;20572;-77
2023/01/10 04:00:11;;;;;;;4.43;2.23;;;;;;;4.28;100.00;152462.47;4991976;28;20649;-78
2023/01/10 04:02:58;;;;;;;3.53;2.30;;;;;;;4.26;100.00;152457.31;5007258;28;20590;-77
2023/01/10 04:05:43;;;;;;;3.70;2.30;;;;;;;4.23;100.00;152449.59;4988504;28;20441;-77
2023/01/10 04:08:28;;;;;;;2.00;1.63;;;;;;;4.19;100.00;152440.56;4989541;28;20472;-78
2023/01/10 04:11:14;;;;;;;2.60;2.07;;;;;;;4.14;100.00;152426.38;4994897;28;20517;-77
2023/01/10 04:14:00;;;;;;;3.13;1.93;;;;;;;4.10;100.00;152417.34;5003952;28;20467;-77
2023/01/10 04:16:46;;;;;;;2.13;1.27;;;;;;;4.06;100.00;152407.06;4992728;28;20544;-77
2023/01/10 04:19:31;;;;;;;3.37;1.77;;;;;;;4.06;100.00;152405.78;4996435;28;20575;-77
2023/01/10 04:22:16;;;;;;;2.60;2.07;;;;;;;4.03;100.00;152399.34;4995842;28;20420;-77
2023/01/10 04:25:02;;;;;;;3.60;1.87;;;;;;;4.06;100.00;152407.06;4986250;28;20447;-77
2023/01/10 04:27:48;;;;;;;5.73;2.20;;;;;;;4.03;100.00;152398.03;4998153;28;20617;-77
2023/01/10 04:30:35;;;;;;;3.07;2.20;;;;;;;4.04;100.00;152400.63;4986643;28;20576;-77
2023/01/10 04:33:21;;;;;;;3.57;2.30;;;;;;;4.02;100.00;152396.78;5002842;28;21017;-77
2023/01/10 04:36:07;;;;;;;6.53;1.93;;;;;;;4.04;100.00;152400.63;4990968;28;20570;-77
2023/01/10 04:38:53;;;;;;;2.73;1.80;;;;;;;4.02;100.00;152395.50;4995066;28;20442;-77
2023/01/10 04:41:38;;;;;;;2.50;1.77;;;;;;;3.99;100.00;152389.06;4996448;28;20448;-77
2023/01/10 04:44:24;;;;;;;2.23;2.03;;;;;;;4.01;100.00;152394.19;4993750;28;20453;-77
2023/01/10 04:47:10;;;;;;;2.17;1.90;;;;;;;3.98;100.00;152385.16;4976833;28;20397;-78
2023/01/10 04:49:55;;;;;;;3.77;2.60;;;;;;;3.96;100.00;152380.03;4990333;28;20440;-77
2023/01/10 04:52:42;;;;;;;2.87;2.00;;;;;;;3.92;100.00;152369.75;5004372;28;20480;-77
2023/01/10 04:55:27;;;;;;;7.23;2.17;;;;;;;3.88;100.00;152359.44;4992011;28;20472;-77
2023/01/10 04:58:13;;;;;;;4.03;2.27;;;;;;;3.83;100.00;152346.56;4994995;28;20436;-77
2023/01/10 05:00:58;;;;;;;4.87;2.27;;;;;;;3.83;100.00;152346.56;5002039;28;20950;-77
2023/01/10 05:03:47;;;;;;;4.13;1.97;;;;;;;3.87;100.00;152356.81;4994689;28;20460;-77
2023/01/10 05:06:32;;;;;;;3.47;1.90;;;;;;;3.80;100.00;152338.81;4996912;28;20462;-77
2023/01/10 05:09:18;;;;;;;5.00;2.50;;;;;;;3.75;100.00;152325.94;4987848;28;20960;-78
2023/01/10 05:12:04;;;;;;;4.47;2.23;;;;;;;3.75;100.00;152327.25;4987250;28;20440;-77
2023/01/10 05:14:50;;;;;;;3.83;2.30;;;;;;;3.72;100.00;152319.50;4994639;28;20436;-77
2023/01/10 05:17:35;;;;;;;3.73;2.13;;;;;;;3.73;100.00;152320.81;4995131;28;20968;-77
2023/01/10 05:20:21;;;;;;;5.93;2.10;;;;;;;3.72;100.00;152319.50;4987364;28;20452;-77
2023/01/10 05:23:07;;;;;;;5.50;2.10;;;;;;;3.72;100.00;152318.22;4993038;28;20463;-77
2023/01/10 05:25:52;;;;;;;3.40;1.93;;;;;;;3.71;100.00;152315.69;4986276;28;20809;-77
2023/01/10 05:28:38;;;;;;;2.73;2.33;;;;;;;3.71;100.00;152316.91;4990875;28;20469;-77
2023/01/10 05:31:24;;;;;;;5.20;2.40;;;;;;;3.75;100.00;152327.25;4991620;28;20452;-77
2023/01/10 05:34:11;;;;;;;4.87;2.93;;;;;;;3.74;100.00;152324.66;4993662;28;20445;-77
2023/01/10 05:36:59;;;;;;;4.93;2.17;;;;;;;3.71;100.00;152315.69;4988297;28;20756;-77
2023/01/10 05:39:44;;;;;;;3.80;2.30;;;;;;;3.78;100.00;152333.69;4993247;28;20465;-77
2023/01/10 05:42:30;;;;;;;6.10;2.47;;;;;;;3.81;100.00;152341.41;4994189;28;20444;-77
2023/01/10 05:45:15;;;;;;;10.53;2.47;;;;;;;3.82;100.00;152343.97;4992188;28;20449;-77
2023/01/10 05:48:00;;;;;;;5.73;2.20;;;;;;;3.83;100.00;152346.56;4978124;28;20464;-77
2023/01/10 05:50:46;;;;;;;3.90;2.30;;;;;;;3.82;100.00;152343.97;4993282;28;20480;-77
2023/01/10 05:53:33;;;;;;;4.10;2.10;;;;;;;3.85;100.00;152351.69;4992263;28;20465;-77
2023/01/10 05:56:20;;;;;;;4.97;1.93;;;;;;;3.86;100.00;152354.28;4992738;28;20480;-77
2023/01/10 05:59:06;;;;;;;5.00;1.87;;;;;;;3.89;100.00;152363.25;4988522;28;21044;-77
2023/01/10 06:01:51;;;;;;;4.33;2.00;;;;;;;3.90;100.00;152364.56;4993948;28;20508;-77
2023/01/10 06:04:37;;;;;;;6.27;2.70;;;;;;;3.91;100.00;152367.16;4993407;28;20794;-76
2023/01/10 06:07:22;;;;;;;4.30;2.00;;;;;;;3.89;100.00;152363.25;4981874;28;20524;-77
2023/01/10 06:10:10;;;;;;;6.20;2.50;;;;;;;3.91;100.00;152368.47;4983248;28;20441;-77
2023/01/10 06:12:55;;;;;;;4.33;1.83;;;;;;;3.86;100.00;152355.56;4981324;28;20485;-77
2023/01/10 06:15:41;;;;;;;3.00;1.93;;;;;;;3.88;100.00;152360.72;4982018;28;20555;-78
2023/01/10 06:18:26;;;;;;;5.37;2.30;;;;;;;3.88;100.00;152359.44;4984965;28;20465;-78
2023/01/10 06:21:12;;;;;;;6.23;2.33;;;;;;;3.87;100.00;152356.81;4982578;28;20792;-78
2023/01/10 06:23:57;;;;;;;6.10;1.70;;;;;;;3.89;100.00;152363.25;4993427;28;20457;-78
2023/01/10 06:26:44;;;;;;;4.63;1.90;;;;;;;3.88;100.00;152359.44;4982448;28;20995;-78
2023/01/10 06:29:29;;;;;;;3.27;1.43;;;;;;;3.91;100.00;152367.16;4982170;28;20441;-77
2023/01/10 06:32:14;;;;;;;3.17;1.47;;;;;;;3.95;100.00;152377.44;4982098;28;20476;-78
2023/01/10 06:35:00;;;;;;;6.23;1.47;;;;;;;3.93;100.00;152372.28;4979538;28;20693;-76
2023/01/10 06:37:45;;;;;;;5.30;2.33;;;;;;;3.97;100.00;152382.63;4981365;28;20449;-75
2023/01/10 06:40:31;;;;;;;4.17;1.97;;;;;;;3.93;100.00;152372.28;4982224;28;20452;-77
2023/01/10 06:43:18;;;;;;;3.50;1.40;;;;;;;3.91;100.00;152368.47;4982359;28;20453;-78
2023/01/10 06:46:03;;;;;;;2.30;1.73;;;;;;;3.93;100.00;152373.59;4986361;28;20465;-77
2023/01/10 06:48:48;;;;;;;3.63;1.63;;;;;;;3.97;100.00;152382.63;4985063;28;20457;-77
2023/01/10 06:51:34;;;;;;;3.83;1.50;;;;;;;3.90;100.00;152365.84;4983993;28;20858;-78
2023/01/10 06:54:19;;;;;;;4.13;1.73;;;;;;;3.88;100.00;152359.44;4982152;28;20786;-78
2023/01/10 06:57:05;;;;;;;3.23;1.80;;;;;;;3.87;100.00;152356.81;4992058;28;20468;-78
2023/01/10 06:59:51;;;;;;;3.33;1.30;;;;;;;3.89;100.00;152363.25;4982741;28;20457;-77
2023/01/10 07:02:37;;;;;;;2.00;1.50;;;;;;;3.89;100.00;152363.25;4977937;28;20572;-77
2023/01/10 07:05:22;;;;;;;3.90;2.10;;;;;;;3.89;100.00;152363.25;4979845;28;20457;-77
2023/01/10 07:08:08;;;;;;;3.70;1.97;;;;;;;3.90;100.00;152364.56;4976271;28;20999;-78
2023/01/10 07:10:53;;;;;;;2.50;1.70;;;;;;;3.89;100.00;152362.00;4980744;28;20939;-78
2023/01/10 07:13:40;;;;;;;2.77;1.80;;;;;;;3.90;100.00;152364.56;4980107;28;20596;-78
2023/01/10 07:16:26;;;;;;;7.87;2.17;;;;;;;3.92;100.00;152369.75;4983827;28;20481;-77
2023/01/10 07:19:13;;;;;;;6.63;2.00;;;;;;;3.91;100.00;152367.16;4981042;28;20575;-77
2023/01/10 07:21:58;;;;;;;3.90;1.90;;;;;;;3.90;100.00;152364.56;4985019;28;20956;-77
2023/01/10 07:24:44;;;;;;;4.53;1.80;;;;;;;3.90;100.00;152365.84;4983845;28;20440;-77
2023/01/10 07:27:31;;;;;;;1.77;1.43;;;;;;;3.92;100.00;152369.75;4983642;28;20449;-78
2023/01/10 07:30:16;;;;;;;3.50;1.87;;;;;;;3.93;100.00;152372.28;4982401;28;20795;-77
2023/01/10 07:33:05;;;;;;;3.90;2.00;;;;;;;3.95;100.00;152377.44;4979852;28;20612;-78
2023/01/10 07:35:50;;;;;;;4.50;2.00;;;;;;;3.97;100.00;152383.88;4983302;28;20481;-78
2023/01/10 07:38:37;;;;;;;2.80;1.60;;;;;;;3.95;100.00;152377.44;4986454;28;20480;-78
2023/01/10 07:41:22;;;;;;;3.83;1.70;;;;;;;4.01;100.00;152394.19;4987809;28;21065;-78
2023/01/10 07:44:08;;;;;;;1.83;1.50;;;;;;;3.99;100.00;152387.75;4986223;28;20955;-78
2023/01/10 07:46:53;;;;;;;3.23;1.43;;;;;;;3.98;100.00;152386.47;4987415;28;20968;-78
2023/01/10 07:49:40;;;;;;;5.00;1.90;;;;;;;4.00;100.00;152390.31;4986973;28;20775;-78
2023/01/10 07:52:25;;;;;;;5.93;1.77;;;;;;;4.00;100.00;152391.59;4985993;28;20984;-78
2023/01/10 07:55:11;;;;;;;3.17;1.83;;;;;;;4.03;100.00;152399.34;4988744;28;22295;-77
2023/01/10 07:57:57;;;;;;;3.03;1.80;;;;;;;4.03;100.00;152398.03;4986017;28;20488;-78
2023/01/10 08:00:44;;;;;;;6.43;2.47;;;;;;;4.03;100.00;152399.34;4983336;28;20477;-77
2023/01/10 08:03:31;;;;;;;4.00;1.80;;;;;;;4.07;100.00;152408.38;4981544;28;20453;-77
2023/01/10 08:06:18;;;;;;;4.10;1.80;;;;;;;4.07;100.00;152408.38;4984072;28;20441;-77
2023/01/10 08:09:05;;;;;;;5.13;2.20;;;;;;;4.09;100.00;152413.50;4982762;28;20960;-78
2023/01/10 08:11:50;;;;;;;7.33;3.00;;;;;;;4.10;100.00;152416.09;4983235;28;21049;-77
2023/01/10 08:14:35;;;;;;;3.30;2.30;;;;;;;4.15;100.00;152428.97;4985587;28;20944;-78
2023/01/10 08:17:21;;;;;;;2.90;1.97;;;;;;;4.15;100.00;152428.97;4983330;28;20969;-77
2023/01/10 08:20:08;;;;;;;5.33;2.63;;;;;;;4.15;100.00;152428.97;4995021;28;20449;-78
2023/01/10 08:22:57;;;;;;;5.60;1.87;;;;;;;4.16;100.00;152432.81;4982992;28;20495;-78
2023/01/10 08:25:42;;;;;;;4.17;2.60;;;;;;;4.19;100.00;152439.25;4983215;28;20445;-78
2023/01/10 08:28:27;;;;;;;3.77;2.37;;;;;;;4.19;100.00;152439.25;4993844;28;20496;-78
2023/01/10 08:31:13;;;;;;;4.07;3.00;;;;;;;4.20;100.00;152441.84;4982438;28;20446;-78
2023/01/10 08:33:58;;;;;;;5.17;2.83;;;;;;;4.20;100.00;152443.16;4983433;28;20453;-78
2023/01/10 08:36:43;;;;;;;6.20;3.00;;;;;;;4.21;100.00;152444.41;4982080;28;20800;-78
2023/01/10 08:39:30;;;;;;;3.27;2.20;;;;;;;4.20;100.00;152443.16;4984826;28;20433;-78
2023/01/10 08:42:17;;;;;;;3.73;2.10;;;;;;;4.26;100.00;152457.31;4983788;28;20454;-78
2023/01/10 08:45:03;;;;;;;3.40;2.10;;;;;;;4.28;100.00;152462.47;4981946;28;20453;-78
2023/01/10 08:47:48;;;;;;;2.80;1.93;;;;;;;4.31;100.00;152470.19;4981823;28;20586;-78
2023/01/10 08:50:33;;;;;;;3.70;2.70;;;;;;;4.28;100.00;152463.75;4983487;28;20451;-77
2023/01/10 08:53:19;;;;;;;5.00;3.20;;;;;;;4.28;100.00;152462.47;4995381;28;20462;-78
2023/01/10 08:56:07;;;;;;;9.53;3.53;;;;;;;4.30;100.00;152467.59;4983742;28;20517;-78
2023/01/10 08:58:52;;;;;;;3.00;1.93;;;;;;;4.32;100.00;152472.75;4981964;28;20460;-78
2023/01/10 09:01:38;;;;;;;5.13;2.40;;;;;;;4.36;100.00;152481.78;4982656;28;20437;-78
2023/01/10 09:04:23;;;;;;;4.40;2.60;;;;;;;4.37;100.00;152484.38;4985600;28;20465;-78
2023/01/10 09:07:09;;;;;;;3.27;2.10;;;;;;;4.39;100.00;152490.81;4982917;28;20433;-78
2023/01/10 09:09:54;;;;;;;4.10;2.77;;;;;;;4.41;100.00;152495.94;4982622;28;20493;-78
2023/01/10 09:15:46;;;;;;;5.70;2.53;;;;;;;4.42;100.00;152497.25;4981929;28;20789;-78
2023/01/10 09:18:32;;;;;;;7.40;3.10;;;;;;;4.40;100.00;152493.34;4996006;28;20445;-78
2023/01/10 09:21:19;;;;;;;4.97;2.50;;;;;;;4.38;100.00;152486.91;4981490;28;20438;-78
2023/01/10 09:24:06;;;;;;;6.30;2.33;;;;;;;4.39;100.00;152490.81;4982908;28;20477;-78
2023/01/10 09:26:51;;;;;;;3.83;2.70;;;;;;;4.43;100.00;152501.09;4982304;28;20506;-78
2023/01/10 09:29:38;;;;;;;11.70;6.70;;;;;;;4.45;100.00;152506.22;4981403;28;20438;-78
2023/01/10 09:32:24;;;;;;;9.27;5.63;;;;;;;4.48;100.00;152513.97;4993699;28;21216;-78
2023/01/10 09:35:09;;;;;;;6.80;4.00;;;;;;;4.41;100.00;152495.94;4995622;28;20565;-78
2023/01/10 09:37:55;;;;;;;5.10;3.23;;;;;;;4.43;100.00;152499.78;4993536;28;20485;-78
2023/01/10 09:40:54;;;;;;;3.73;2.93;;;;;;;4.36;100.00;152483.06;4981386;28;20437;-78
2023/01/10 09:43:47;;;;;;;8.80;4.80;;;;;;;4.38;100.00;152488.22;4981835;28;20453;-78
2023/01/10 09:46:42;;;;;;;5.00;3.37;;;;;;;4.42;100.00;152498.50;4983512;28;20803;-78
2023/01/10 09:49:40;;;;;;;4.20;2.80;;;;;;;4.42;100.00;152497.25;4981356;28;20492;-78
2023/01/10 09:52:28;;;;;;;5.60;3.60;;;;;;;4.44;100.00;152503.69;4981273;28;20469;-78
2023/01/10 09:55:24;;;;;;;4.63;3.40;;;;;;;4.47;100.00;152511.41;4982016;28;20458;-78
2023/01/10 09:58:13;;;;;;;13.03;10.00;;;;;;;4.54;100.00;152528.13;4980276;28;20559;-78
2023/01/10 10:01:00;;;;;;;8.80;6.30;;;;;;;4.51;100.00;152521.69;4982150;28;20449;-78
2023/01/10 10:03:52;;;;;;;6.43;3.63;;;;;;;4.55;100.00;152532.03;4981612;28;20867;-78
2023/01/10 10:06:38;;;;;;;4.20;2.70;;;;;;;4.58;100.00;152539.72;4982849;28;20441;-78
2023/01/10 10:09:25;;;;;;;4.50;2.70;;;;;;;4.62;100.00;152548.75;4981808;28;20480;-78
2023/01/10 10:12:22;;;;;;;6.50;2.80;;;;;;;4.64;100.00;152555.19;4981604;28;20581;-78
2023/01/10 10:15:17;;;;;;;6.23;2.30;;;;;;;4.68;100.00;152565.53;4981244;28;20522;-78
2023/01/10 10:18:09;;;;;;;6.03;3.17;;;;;;;4.73;100.00;152578.41;4994181;28;20480;-78
2023/01/10 10:21:05;;;;;;;3.70;2.87;;;;;;;4.76;100.00;152586.16;4980750;28;20445;-78
2023/01/10 10:24:14;;;;;;;5.40;3.17;;;;;;;4.80;100.00;152596.44;4980765;28;20474;-78
2023/01/10 10:27:07;;;;;;;3.40;2.10;;;;;;;4.92;100.00;152626.09;4981161;28;20576;-78
2023/01/10 10:30:19;;;;;;;5.50;2.80;;;;;;;4.96;100.00;152636.38;4984238;28;20449;-78
2023/01/10 10:33:19;;;;;;;5.70;2.50;;;;;;;5.02;100.00;152650.56;4979421;28;20466;-78
2023/01/10 10:36:11;;;;;;;3.70;3.03;;;;;;;5.03;100.00;152653.16;4979310;28;20496;-84
2023/01/10 10:38:58;;;;;;;3.00;1.90;;;;;;;5.07;100.00;152663.44;4982119;28;20449;-84
2023/01/10 10:41:45;;;;;;;2.87;2.00;;;;;;;5.05;100.00;152658.31;4980841;28;20476;-84
2023/01/10 10:44:38;;;;;;;3.40;2.53;;;;;;;5.07;100.00;152663.44;4980085;28;20446;-84
2023/01/10 10:47:24;;;;;;;3.90;1.87;;;;;;;5.09;100.00;152668.59;4982170;28;20496;-84
2023/01/10 10:50:19;;;;;;;4.80;1.90;;;;;;;5.11;100.00;152673.78;4980569;28;20438;-84
2023/01/10 10:53:05;;;;;;;6.60;2.23;;;;;;;5.11;100.00;152673.78;4979423;28;21017;-84
2023/01/10 10:55:52;;;;;;;3.30;1.90;;;;;;;5.11;100.00;152673.78;4981826;28;20972;-84
2023/01/10 10:58:38;;;;;;;3.30;2.00;;;;;;;5.11;100.00;152673.78;4981381;28;20485;-84
2023/01/10 11:01:23;;;;;;;3.10;1.73;;;;;;;5.14;100.00;152681.47;4992534;28;21023;-84
2023/01/10 11:04:10;;;;;;;3.30;1.60;;;;;;;5.17;100.00;152689.22;4980961;28;20453;-84
2023/01/10 11:06:56;;;;;;;4.57;2.07;;;;;;;5.22;100.00;152703.41;4980605;28;20784;-84
2023/01/10 11:09:43;;;;;;;3.83;1.80;;;;;;;5.22;100.00;152702.09;4980554;28;20437;-84
2023/01/10 11:12:32;;;;;;;3.87;1.80;;;;;;;5.27;100.00;152715.03;4984030;28;21068;-84
2023/01/10 11:15:36;;;;;;;4.37;2.03;;;;;;;5.21;100.00;152699.56;4993981;28;20500;-84
2023/01/10 11:18:25;;;;;;;2.47;2.27;;;;;;;5.22;100.00;152702.09;4992948;28;20488;-84
2023/01/10 11:21:12;;;;;;;3.30;2.10;;;;;;;5.23;100.00;152704.69;4985065;28;20494;-84
2023/01/10 11:23:58;;;;;;;3.10;2.23;;;;;;;5.21;100.00;152700.84;4980530;28;21068;-84
2023/01/10 11:26:44;;;;;;;3.40;2.57;;;;;;;5.35;100.00;152735.63;4981675;28;20567;-83
2023/01/10 11:29:37;;;;;;;4.70;2.87;;;;;;;5.28;100.00;152718.88;4980828;28;20508;-83
2023/01/10 11:32:26;;;;;;;2.30;1.57;;;;;;;5.32;100.00;152727.91;4978988;28;20890;-84
2023/01/10 11:35:19;;;;;;;5.43;2.23;;;;;;;5.27;100.00;152715.03;4979660;28;20989;-84
2023/01/10 11:38:07;;;;;;;2.40;1.90;;;;;;;5.27;100.00;152716.28;4979887;28;20848;-83
2023/01/10 11:40:54;;;;;;;14.57;5.93;;;;;;;5.33;100.00;152730.47;4982202;28;20467;-83
2023/01/10 11:43:41;;;;;;;7.13;3.83;;;;;;;5.37;100.00;152740.81;4981783;28;20468;-83
2023/01/10 11:46:26;;;;;;;3.80;2.37;;;;;;;5.40;100.00;152749.81;4982313;28;20441;-77
2023/01/10 11:49:18;;;;;;;4.30;1.73;;;;;;;5.42;100.00;152753.69;4979699;28;20453;-77
2023/01/10 11:52:05;;;;;;;6.60;2.27;;;;;;;5.42;100.00;152753.69;4980821;28;20453;-77
2023/01/10 11:54:51;;;;;;;4.20;2.27;;;;;;;5.46;100.00;152764.00;4980600;28;20497;-77
2023/01/10 11:57:37;;;;;;;11.60;7.03;;;;;;;5.49;100.00;152771.72;4979973;28;20548;-77
2023/01/10 12:00:34;;;;;;;2.63;2.20;;;;;;;5.50;100.00;152774.31;4978391;28;20569;-77
2023/01/10 12:03:25;;;;;;;5.53;2.30;;;;;;;5.52;100.00;152779.47;4980755;28;20456;-77
2023/01/10 12:06:15;;;;;;;5.23;3.27;;;;;;;5.49;100.00;152771.72;4980999;28;20445;-77
2023/01/10 12:09:00;;;;;;;9.27;2.63;;;;;;;5.57;100.00;152791.06;4979017;28;20453;-77
2023/01/10 12:11:46;;;;;;;5.07;2.97;;;;;;;5.60;100.00;152798.81;4981670;28;20449;-77
2023/01/10 12:14:31;;;;;;;4.63;2.40;;;;;;;5.54;100.00;152784.63;4981542;28;20956;-77
2023/01/10 12:17:24;;;;;;;4.67;2.00;;;;;;;5.58;100.00;152793.66;4979463;28;21020;-77
2023/01/10 12:20:13;;;;;;;2.80;1.97;;;;;;;5.60;100.00;152800.09;4982288;28;20523;-77
2023/01/10 12:23:01;;;;;;;3.07;2.63;;;;;;;5.59;100.00;152797.50;4978906;28;20972;-77
2023/01/10 12:25:47;;;;;;;3.70;1.80;;;;;;;5.66;100.00;152814.28;4982610;28;20794;-77
2023/01/10 12:28:32;;;;;;;4.60;2.30;;;;;;;5.62;100.00;152803.97;4984797;28;21019;-77
2023/01/10 12:31:18;;;;;;;3.00;1.40;;;;;;;5.57;100.00;152792.38;4982461;28;20846;-77
2023/01/10 12:34:10;;;;;;;6.40;1.90;;;;;;;5.58;100.00;152793.66;4983020;28;20445;-78
2023/01/10 12:37:01;;;;;;;5.47;2.43;;;;;;;5.64;99.53;152810.41;4983958;28;20527;-77
2023/01/10 12:39:49;;;;;;;4.37;1.90;;;;;;;5.66;97.65;152814.28;4988455;28;20449;-77
2023/01/10 12:45:53;;;;;;;5.97;1.70;;;;;;;5.78;100.00;152846.53;4997740;28;20445;-77
2023/01/10 12:48:45;;;;;;;5.70;3.13;;;;;;;5.87;99.41;152868.50;4983080;28;20804;-77
2023/01/10 12:51:34;;;;;;;2.47;1.60;;;;;;;5.91;99.27;152880.09;4983425;28;20469;-77
2023/01/10 12:54:22;;;;;;;2.17;1.57;;;;;;;5.91;97.35;152878.81;4989532;28;20520;-77
2023/01/10 12:57:17;;;;;;;6.17;2.83;;;;;;;5.98;97.40;152898.16;4983857;28;20444;-77
2023/01/10 13:00:05;;;;;;;5.33;1.60;;;;;;;5.97;97.11;152895.59;4984326;28;20437;-77
2023/01/10 13:02:53;;;;;;;5.67;1.70;;;;;;;6.00;95.17;152902.03;4983797;28;20456;-77
2023/01/10 13:05:38;;;;;;;4.70;2.13;;;;;;;6.03;93.42;152911.09;4983657;28;20793;-77
2023/01/10 13:08:27;;;;;;;3.93;1.83;;;;;;;6.05;93.31;152916.25;4983015;28;20671;-77
2023/01/10 13:11:13;;;;;;;5.10;1.50;;;;;;;6.07;94.04;152920.09;4986328;28;20948;-77
2023/01/10 13:14:01;;;;;;;3.43;1.67;;;;;;;6.08;93.12;152922.69;4982289;28;20460;-77